createdAt,value
2018-12-31T00:01:46.824Z,3.33
2018-12-31T00:04:35.371Z,3.20
2018-12-31T00:07:45.702Z,3.24
2018-12-31T00:10:56.013Z,3.28
2018-12-31T00:13:44.581Z,3.20
2018-12-31T00:16:33.620Z,3.38
2018-12-31T00:19:21.792Z,3.36
2018-12-31T00:22:09.996Z,3.26
2018-12-31T00:24:58.456Z,3.36
2018-12-31T00:27:50.813Z,3.40
2018-12-31T00:30:39.304Z,3.32
2018-12-31T00:33:28.043Z,3.24
2018-12-31T00:36:16.414Z,3.32
2018-12-31T00:39:06.791Z,3.38
2018-12-31T00:41:56.179Z,3.40
2018-12-31T00:44:45.195Z,3.43
2018-12-31T00:47:33.762Z,3.43
2018-12-31T00:50:22.594Z,3.34
2018-12-31T00:53:10.651Z,3.43
2018-12-31T00:55:59.027Z,3.43
2018-12-31T00:58:48.237Z,3.41
2018-12-31T01:01:36.636Z,3.46
2018-12-31T01:04:26.019Z,3.50
2018-12-31T01:07:14.109Z,3.53
2018-12-31T01:10:02.424Z,3.50
2018-12-31T01:12:51.527Z,3.52
2018-12-31T01:15:39.738Z,3.63
2018-12-31T01:18:27.719Z,3.63
2018-12-31T01:21:15.577Z,3.49
2018-12-31T01:24:04.514Z,3.52
2018-12-31T01:26:52.940Z,3.50
2018-12-31T01:29:41.499Z,3.47
2018-12-31T01:32:29.971Z,3.47
2018-12-31T01:35:17.633Z,3.56
2018-12-31T01:38:06.354Z,3.57
2018-12-31T01:40:55.635Z,3.49
2018-12-31T01:43:44.391Z,3.42
2018-12-31T01:46:32.878Z,3.46
2018-12-31T01:49:21.581Z,3.57
2018-12-31T01:52:09.968Z,3.41
2018-12-31T01:54:58.289Z,3.49
2018-12-31T01:57:47.129Z,3.36
2018-12-31T02:00:35.399Z,3.36
2018-12-31T02:03:24.533Z,3.42
2018-12-31T02:06:13.225Z,3.38
2018-12-31T02:09:01.972Z,3.46
2018-12-31T02:11:50.384Z,3.46
2018-12-31T02:14:39.144Z,3.43
2018-12-31T02:17:28.034Z,3.34
2018-12-31T02:20:16.702Z,3.38
2018-12-31T02:23:04.952Z,3.41
2018-12-31T02:25:52.965Z,3.51
2018-12-31T02:28:41.387Z,3.46
2018-12-31T02:31:29.561Z,3.46
2018-12-31T02:34:17.941Z,3.37
2018-12-31T02:37:06.165Z,3.40
2018-12-31T02:39:54.069Z,3.45
2018-12-31T02:42:42.834Z,3.37
2018-12-31T02:45:30.773Z,3.32
2018-12-31T02:48:19.135Z,3.38
2018-12-31T02:51:08.154Z,3.37
2018-12-31T02:53:56.386Z,3.43
2018-12-31T02:56:45.344Z,3.46
2018-12-31T02:59:34.587Z,3.43
2018-12-31T03:02:23.637Z,3.28
2018-12-31T03:05:12.697Z,3.41
2018-12-31T03:08:01.375Z,3.42
2018-12-31T03:10:49.461Z,3.34
2018-12-31T03:13:39.138Z,3.34
2018-12-31T03:16:27.787Z,3.29
2018-12-31T03:19:16.650Z,3.36
2018-12-31T03:22:05.069Z,3.27
2018-12-31T03:24:53.676Z,3.35
2018-12-31T03:27:42.561Z,3.37
2018-12-31T03:30:30.918Z,3.45
2018-12-31T03:33:18.912Z,3.46
2018-12-31T03:36:07.569Z,3.38
2018-12-31T03:38:56.636Z,3.38
2018-12-31T03:41:44.758Z,3.46
2018-12-31T03:44:34.019Z,3.45
2018-12-31T03:47:23.017Z,3.30
2018-12-31T03:50:11.965Z,3.30
2018-12-31T03:53:00.921Z,3.35
2018-12-31T03:55:49.872Z,3.19
2018-12-31T03:58:38.786Z,3.27
2018-12-31T04:01:27.430Z,3.11
2018-12-31T04:04:16.089Z,3.07
2018-12-31T04:07:04.789Z,3.06
2018-12-31T04:09:53.373Z,3.15
2018-12-31T04:12:41.852Z,3.13
2018-12-31T04:15:29.952Z,3.20
2018-12-31T04:18:18.276Z,3.27
2018-12-31T04:21:06.942Z,3.11
2018-12-31T04:23:55.918Z,3.05
2018-12-31T04:26:44.446Z,3.12
2018-12-31T04:29:33.077Z,3.12
2018-12-31T04:32:21.832Z,3.26
2018-12-31T04:35:10.130Z,3.23
2018-12-31T04:37:58.594Z,3.11
2018-12-31T04:40:46.489Z,3.17
2018-12-31T04:43:35.173Z,3.21
2018-12-31T04:46:23.520Z,3.14
2018-12-31T04:49:11.866Z,3.15
2018-12-31T04:51:59.908Z,3.17
2018-12-31T04:54:48.289Z,3.20
2018-12-31T04:57:37.127Z,3.10
2018-12-31T05:00:25.302Z,3.10
2018-12-31T05:03:14.052Z,3.15
2018-12-31T05:06:03.022Z,3.10
2018-12-31T05:08:51.153Z,3.16
2018-12-31T05:11:39.405Z,3.13
2018-12-31T05:14:28.173Z,3.10
2018-12-31T05:17:16.679Z,3.19
2018-12-31T05:20:05.545Z,3.13
2018-12-31T05:22:53.872Z,3.18
2018-12-31T05:25:43.355Z,3.08
2018-12-31T05:28:31.268Z,3.05
2018-12-31T05:31:19.714Z,3.14
2018-12-31T05:34:08.814Z,3.18
2018-12-31T05:36:57.495Z,3.30
2018-12-31T05:39:45.727Z,3.25
2018-12-31T05:42:33.631Z,3.27
2018-12-31T05:45:22.360Z,3.34
2018-12-31T05:48:10.816Z,3.42
2018-12-31T05:50:59.013Z,3.39
2018-12-31T05:53:46.607Z,3.31
2018-12-31T05:56:35.739Z,3.14
2018-12-31T05:59:23.927Z,3.09
2018-12-31T06:02:12.097Z,3.09
2018-12-31T06:05:00.551Z,3.12
2018-12-31T06:07:50.087Z,3.10
2018-12-31T06:10:39.281Z,3.19
2018-12-31T06:13:27.371Z,3.08
2018-12-31T06:16:15.971Z,3.08
2018-12-31T06:19:04.273Z,3.09
2018-12-31T06:21:53.294Z,3.12
2018-12-31T06:24:41.799Z,3.13
2018-12-31T06:27:30.154Z,3.08
2018-12-31T06:30:18.091Z,3.05
2018-12-31T06:33:06.165Z,3.07
2018-12-31T06:35:54.732Z,3.05
2018-12-31T06:38:43.840Z,2.95
2018-12-31T06:41:32.071Z,3.00
2018-12-31T06:44:20.019Z,3.04
2018-12-31T06:47:08.653Z,3.06
2018-12-31T06:49:56.708Z,3.04
2018-12-31T06:52:45.207Z,3.05
2018-12-31T06:55:33.312Z,3.04
2018-12-31T06:58:21.600Z,3.03
2018-12-31T07:01:09.983Z,3.07
2018-12-31T07:03:58.152Z,3.08
2018-12-31T07:06:46.396Z,3.15
2018-12-31T07:09:34.567Z,2.98
2018-12-31T07:12:23.070Z,3.15
2018-12-31T07:15:10.714Z,3.05
2018-12-31T07:17:58.658Z,3.03
2018-12-31T07:20:47.363Z,2.98
2018-12-31T07:23:36.213Z,2.93
2018-12-31T07:26:24.078Z,3.08
2018-12-31T07:29:12.515Z,2.99
2018-12-31T07:32:01.400Z,3.07
2018-12-31T07:34:50.514Z,3.06
2018-12-31T07:37:38.905Z,2.95
2018-12-31T07:40:27.214Z,2.97
2018-12-31T07:43:15.893Z,2.95
2018-12-31T07:46:04.479Z,2.88
2018-12-31T07:48:52.821Z,2.89
2018-12-31T07:51:42.032Z,2.84
2018-12-31T07:54:30.895Z,2.90
2018-12-31T07:57:18.917Z,2.96
2018-12-31T08:00:08.074Z,2.98
2018-12-31T08:02:56.932Z,3.08
2018-12-31T08:05:46.303Z,2.98
2018-12-31T08:08:35.242Z,2.97
2018-12-31T08:11:24.315Z,3.06
2018-12-31T08:14:12.771Z,3.17
2018-12-31T08:17:01.271Z,3.05
2018-12-31T08:19:50.849Z,2.92
2018-12-31T08:22:39.741Z,2.94
2018-12-31T08:25:28.675Z,2.96
2018-12-31T08:28:20.589Z,2.83
2018-12-31T08:31:09.430Z,2.89
2018-12-31T08:34:00.025Z,3.02
2018-12-31T08:36:48.441Z,2.97
2018-12-31T08:39:37.006Z,2.90
2018-12-31T08:42:25.726Z,2.98
2018-12-31T08:45:14.177Z,2.97
2018-12-31T08:48:03.003Z,3.00
2018-12-31T08:50:51.473Z,3.05
2018-12-31T08:53:39.916Z,2.95
2018-12-31T08:56:28.588Z,2.98
2018-12-31T08:59:18.306Z,3.03
2018-12-31T09:02:06.576Z,3.02
2018-12-31T09:04:55.398Z,3.08
2018-12-31T09:07:43.632Z,3.02
2018-12-31T09:10:32.144Z,3.10
2018-12-31T09:13:22.024Z,3.10
2018-12-31T09:16:10.981Z,3.11
2018-12-31T09:19:00.195Z,2.94
2018-12-31T09:21:49.025Z,3.03
2018-12-31T09:24:44.513Z,2.97
2018-12-31T09:27:27.878Z,2.98
2018-12-31T09:30:16.526Z,3.01
2018-12-31T09:33:05.561Z,3.09
2018-12-31T09:35:54.145Z,3.15
2018-12-31T09:38:43.300Z,3.13
2018-12-31T09:41:32.364Z,3.07
2018-12-31T09:44:21.389Z,3.09
2018-12-31T09:47:09.769Z,3.19
2018-12-31T09:49:58.154Z,3.27
2018-12-31T09:52:48.084Z,3.29
2018-12-31T09:55:36.361Z,3.33
2018-12-31T09:58:24.617Z,3.28
2018-12-31T10:01:13.112Z,3.33
2018-12-31T10:04:01.211Z,3.39
2018-12-31T10:06:49.130Z,3.40
2018-12-31T10:09:37.589Z,3.42
2018-12-31T10:12:25.732Z,3.40
2018-12-31T10:15:14.855Z,3.52
2018-12-31T10:18:03.328Z,3.54
2018-12-31T10:20:52.360Z,3.64
2018-12-31T10:23:41.195Z,3.62
2018-12-31T10:26:30.001Z,3.64
2018-12-31T10:29:18.346Z,3.70
2018-12-31T10:32:06.401Z,3.64
2018-12-31T10:34:54.561Z,3.73
2018-12-31T10:37:43.851Z,3.69
2018-12-31T10:40:32.230Z,3.70
2018-12-31T10:43:20.875Z,3.79
2018-12-31T10:46:09.203Z,3.82
2018-12-31T10:48:57.708Z,3.86
2018-12-31T10:51:46.060Z,3.86
2018-12-31T10:54:34.926Z,3.95
2018-12-31T10:57:23.412Z,3.95
2018-12-31T11:00:12.772Z,3.98
2018-12-31T11:03:01.319Z,3.98
2018-12-31T11:05:49.210Z,3.96
2018-12-31T11:08:38.139Z,3.99
2018-12-31T11:11:26.653Z,3.95
2018-12-31T11:14:15.376Z,3.79
2018-12-31T11:17:03.526Z,3.86
2018-12-31T11:19:52.101Z,3.97
2018-12-31T11:22:40.245Z,3.97
2018-12-31T11:25:29.381Z,3.92
2018-12-31T11:28:18.006Z,3.98
2018-12-31T11:31:06.953Z,4.00
2018-12-31T11:33:55.493Z,4.08
2018-12-31T11:36:44.233Z,4.03
2018-12-31T11:39:37.002Z,4.02
2018-12-31T11:42:25.561Z,4.06
2018-12-31T11:45:14.464Z,4.04
2018-12-31T11:48:05.111Z,3.91
2018-12-31T11:50:54.816Z,4.00
2018-12-31T11:53:43.187Z,4.16
2018-12-31T11:56:31.690Z,4.16
2018-12-31T11:59:21.465Z,4.12
2018-12-31T12:02:10.704Z,4.26
2018-12-31T12:04:59.146Z,4.38
2018-12-31T12:07:48.019Z,4.39
2018-12-31T12:10:36.510Z,4.31
2018-12-31T12:13:25.652Z,4.31
2018-12-31T12:16:14.723Z,4.25
2018-12-31T12:19:02.748Z,4.34
2018-12-31T12:21:51.060Z,4.47
2018-12-31T12:24:40.705Z,4.48
2018-12-31T12:27:30.822Z,4.48
2018-12-31T12:30:20.255Z,4.35
2018-12-31T12:33:09.438Z,4.35
2018-12-31T12:35:57.387Z,4.28
2018-12-31T12:38:45.793Z,4.40
2018-12-31T12:41:35.072Z,4.51
2018-12-31T12:44:23.771Z,4.51
2018-12-31T12:47:13.151Z,4.61
2018-12-31T12:50:02.188Z,4.54
2018-12-31T12:52:50.185Z,4.47
2018-12-31T12:55:38.419Z,4.47
2018-12-31T12:58:26.423Z,4.59
2018-12-31T13:01:15.260Z,4.59
2018-12-31T13:04:04.003Z,4.61
2018-12-31T13:06:52.548Z,4.68
2018-12-31T13:09:41.831Z,4.68
2018-12-31T13:12:32.325Z,4.56
2018-12-31T13:15:21.531Z,4.60
2018-12-31T13:18:10.503Z,4.70
2018-12-31T13:20:59.545Z,4.70
2018-12-31T13:23:48.118Z,4.59
2018-12-31T13:26:43.414Z,4.59
2018-12-31T13:29:33.506Z,4.61
2018-12-31T13:32:22.547Z,4.49
2018-12-31T13:35:10.449Z,4.65
2018-12-31T13:37:58.296Z,4.60
2018-12-31T13:40:47.224Z,4.63
2018-12-31T13:43:43.917Z,4.62
2018-12-31T13:46:32.624Z,4.62
2018-12-31T13:49:21.908Z,4.66
2018-12-31T13:52:10.606Z,4.59
2018-12-31T13:54:58.877Z,4.62
2018-12-31T13:57:47.187Z,4.66
2018-12-31T14:00:35.532Z,4.73
2018-12-31T14:03:23.444Z,4.55
2018-12-31T14:06:12.574Z,4.55
2018-12-31T14:09:01.262Z,4.54
2018-12-31T14:11:49.875Z,4.53
2018-12-31T14:14:38.852Z,4.54
2018-12-31T14:17:27.742Z,4.54
2018-12-31T14:20:15.999Z,4.55
2018-12-31T14:23:04.727Z,4.64
2018-12-31T14:25:53.679Z,4.56
2018-12-31T14:28:41.940Z,4.55
2018-12-31T14:31:30.176Z,4.55
2018-12-31T14:34:18.472Z,4.52
2018-12-31T14:37:06.113Z,4.58
2018-12-31T14:39:54.778Z,4.70
2018-12-31T14:42:43.365Z,4.57
2018-12-31T14:45:32.609Z,4.57
2018-12-31T14:48:21.596Z,4.58
2018-12-31T14:51:10.732Z,4.58
2018-12-31T14:53:59.725Z,4.64
2018-12-31T14:56:48.138Z,4.74
2018-12-31T14:59:36.091Z,4.64
2018-12-31T15:02:24.091Z,4.73
2018-12-31T15:05:12.105Z,4.73
2018-12-31T15:08:00.338Z,4.73
2018-12-31T15:10:48.330Z,4.71
2018-12-31T15:13:37.841Z,4.78
2018-12-31T15:16:26.276Z,4.67
2018-12-31T15:19:18.685Z,4.70
2018-12-31T15:22:07.154Z,4.80
2018-12-31T15:24:55.630Z,4.70
2018-12-31T15:27:43.895Z,4.88
2018-12-31T15:30:32.709Z,4.80
2018-12-31T15:33:21.671Z,4.82
2018-12-31T15:36:10.319Z,4.73
2018-12-31T15:38:58.183Z,4.75
2018-12-31T15:41:46.917Z,4.70
2018-12-31T15:44:35.772Z,4.69
2018-12-31T15:47:24.379Z,4.75
2018-12-31T15:50:12.555Z,4.81
2018-12-31T15:53:01.355Z,4.71
2018-12-31T15:55:49.499Z,4.68
2018-12-31T15:58:38.017Z,4.83
2018-12-31T16:01:27.394Z,4.84
2018-12-31T16:04:15.701Z,4.76
2018-12-31T16:07:04.481Z,4.76
2018-12-31T16:09:53.741Z,4.76
2018-12-31T16:12:42.922Z,4.63
2018-12-31T16:15:32.093Z,4.67
2018-12-31T16:18:20.741Z,4.83
2018-12-31T16:21:09.191Z,4.74
2018-12-31T16:23:57.886Z,4.72
2018-12-31T16:26:46.869Z,4.76
2018-12-31T16:29:35.222Z,4.79
2018-12-31T16:32:24.651Z,4.82
2018-12-31T16:35:13.786Z,4.82
2018-12-31T16:38:02.663Z,4.82
2018-12-31T16:40:51.311Z,4.85
2018-12-31T16:43:40.265Z,4.87
2018-12-31T16:46:28.536Z,4.87
2018-12-31T16:49:18.156Z,4.87
2018-12-31T16:52:07.238Z,4.94
2018-12-31T16:54:56.186Z,4.90
2018-12-31T16:57:44.173Z,5.00
2018-12-31T17:00:34.570Z,5.04
2018-12-31T17:03:25.674Z,5.01
2018-12-31T17:06:14.444Z,5.05
2018-12-31T17:09:03.417Z,5.16
2018-12-31T17:11:52.045Z,5.14
2018-12-31T17:14:40.315Z,5.13
2018-12-31T17:17:28.479Z,5.12
2018-12-31T17:20:16.580Z,5.14
2018-12-31T17:23:04.732Z,5.09
2018-12-31T17:25:52.975Z,4.97
2018-12-31T17:28:41.523Z,5.12
2018-12-31T17:31:29.750Z,5.17
2018-12-31T17:34:18.289Z,5.06
2018-12-31T17:37:07.247Z,5.10
2018-12-31T17:39:55.659Z,5.17
2018-12-31T17:42:44.744Z,5.10
2018-12-31T17:45:33.289Z,5.16
2018-12-31T17:48:21.952Z,5.08
2018-12-31T17:51:10.125Z,5.16
2018-12-31T17:53:58.524Z,5.14
2018-12-31T17:56:46.787Z,5.07
2018-12-31T17:59:35.194Z,5.19
2018-12-31T18:02:23.781Z,5.17
2018-12-31T18:05:12.922Z,5.18
2018-12-31T18:08:02.052Z,5.09
2018-12-31T18:10:51.487Z,5.12
2018-12-31T18:13:41.090Z,5.14
2018-12-31T18:16:29.669Z,5.23
2018-12-31T18:19:18.763Z,5.32
2018-12-31T18:22:07.553Z,5.35
2018-12-31T18:24:59.426Z,5.20
2018-12-31T18:27:48.498Z,5.14
2018-12-31T18:30:36.516Z,5.05
2018-12-31T18:33:25.336Z,5.15
2018-12-31T18:36:13.778Z,5.18
2018-12-31T18:39:01.763Z,5.19
2018-12-31T18:41:49.478Z,5.05
2018-12-31T18:44:37.835Z,5.08
2018-12-31T18:47:27.010Z,5.08
2018-12-31T18:50:16.346Z,5.15
2018-12-31T18:53:05.181Z,5.29
2018-12-31T18:55:54.322Z,5.34
2018-12-31T18:58:44.010Z,5.29
2018-12-31T19:01:34.214Z,5.25
2018-12-31T19:04:23.063Z,5.29
2018-12-31T19:07:12.779Z,5.34
2018-12-31T19:10:01.965Z,5.30
2018-12-31T19:12:50.543Z,5.25
2018-12-31T19:15:39.013Z,5.24
2018-12-31T19:18:28.313Z,5.15
2018-12-31T19:21:16.876Z,5.24
2018-12-31T19:24:06.238Z,5.27
2018-12-31T19:26:54.556Z,5.35
2018-12-31T19:29:43.733Z,5.36
2018-12-31T19:32:32.553Z,5.32
2018-12-31T19:35:21.618Z,5.37
2018-12-31T19:38:10.161Z,5.38
2018-12-31T19:40:59.574Z,5.42
2018-12-31T19:43:48.608Z,5.42
2018-12-31T19:46:37.007Z,5.43
2018-12-31T19:49:25.639Z,5.40
2018-12-31T19:52:13.954Z,5.48
2018-12-31T19:55:07.109Z,5.50
2018-12-31T19:57:58.269Z,5.43
2018-12-31T20:00:48.137Z,5.55
2018-12-31T20:03:37.085Z,5.54
2018-12-31T20:06:25.559Z,5.49
2018-12-31T20:09:14.064Z,5.44
2018-12-31T20:12:03.274Z,5.44
2018-12-31T20:14:52.353Z,5.47
2018-12-31T20:20:21.737Z,5.65
2018-12-31T20:23:13.020Z,5.52
2018-12-31T20:26:02.049Z,5.55
2018-12-31T20:28:50.136Z,5.62
2018-12-31T20:31:38.672Z,5.49
2018-12-31T20:34:28.535Z,5.47
2018-12-31T20:37:17.130Z,5.43
2018-12-31T20:40:06.733Z,5.34
2018-12-31T20:42:55.837Z,5.28
2018-12-31T20:45:44.645Z,5.26
2018-12-31T20:48:32.789Z,5.35
2018-12-31T20:51:21.781Z,5.30
2018-12-31T20:54:10.918Z,5.20
2018-12-31T20:56:59.191Z,5.30
2018-12-31T20:59:47.867Z,5.31
2018-12-31T21:02:36.913Z,5.34
2018-12-31T21:05:25.479Z,5.36
2018-12-31T21:08:13.704Z,5.43
2018-12-31T21:11:02.747Z,5.45
2018-12-31T21:13:51.114Z,5.55
2018-12-31T21:16:40.259Z,5.36
2018-12-31T21:19:29.014Z,5.34
2018-12-31T21:22:17.311Z,5.30
2018-12-31T21:25:05.646Z,5.35
2018-12-31T21:27:53.699Z,5.38
2018-12-31T21:30:41.911Z,5.35
2018-12-31T21:33:32.626Z,5.28
2018-12-31T21:36:21.451Z,5.31
2018-12-31T21:39:10.296Z,5.35
2018-12-31T21:41:59.468Z,5.26
2018-12-31T21:44:48.693Z,5.30
2018-12-31T21:47:38.088Z,5.19
2018-12-31T21:50:28.186Z,5.28
2018-12-31T21:53:16.904Z,5.27
2018-12-31T21:56:05.573Z,5.43
2018-12-31T21:58:54.309Z,5.25
2018-12-31T22:01:42.632Z,5.26
2018-12-31T22:04:31.709Z,5.19
2018-12-31T22:07:20.329Z,5.13
2018-12-31T22:10:08.882Z,5.26
2018-12-31T22:12:57.455Z,5.24
2018-12-31T22:15:45.922Z,5.09
2018-12-31T22:18:34.529Z,5.13
2018-12-31T22:21:23.318Z,5.13
2018-12-31T22:24:12.937Z,5.15
2018-12-31T22:27:02.080Z,5.05
2018-12-31T22:29:50.386Z,5.14
2018-12-31T22:32:39.345Z,5.05
2018-12-31T22:35:27.446Z,5.04
2018-12-31T22:38:16.772Z,5.03
2018-12-31T22:41:05.602Z,5.05
2018-12-31T22:43:54.175Z,5.05
2018-12-31T22:46:42.523Z,5.00
2018-12-31T22:49:31.244Z,5.00
2018-12-31T22:52:20.355Z,4.89
2018-12-31T22:55:08.670Z,4.86
2018-12-31T22:57:57.055Z,4.88
2018-12-31T23:00:45.278Z,4.89
2018-12-31T23:03:33.817Z,4.92
2018-12-31T23:06:23.393Z,4.87
2018-12-31T23:09:14.740Z,4.91
2018-12-31T23:12:03.709Z,4.92
2018-12-31T23:14:53.084Z,4.98
2018-12-31T23:17:41.713Z,5.02
2018-12-31T23:20:29.622Z,5.05
2018-12-31T23:23:19.117Z,5.01
2018-12-31T23:26:08.392Z,4.93
2018-12-31T23:28:58.720Z,4.97
2018-12-31T23:31:47.080Z,5.06
2018-12-31T23:34:35.920Z,5.07
2018-12-31T23:37:23.822Z,5.04
2018-12-31T23:40:12.094Z,5.02
2018-12-31T23:43:06.283Z,5.03
2018-12-31T23:45:51.214Z,5.08
2018-12-31T23:48:39.428Z,5.01
2018-12-31T23:51:27.954Z,5.04
2018-12-31T23:54:19.951Z,5.11
2018-12-31T23:57:08.723Z,5.05
2018-12-31T23:59:57.368Z,5.00
